Tuesday, May 26, 2015, 1:27 AM EDT

KOKV, Winchester Regional

Location: Winchester, VA, United States Lat: 39.15
Local Time: 1:27 AM EDT ( 5:27 GMT) Lon: -78.15
Time Zone: US/Eastern Elev: 728 ft

Show me the last for .
Show Decoded

2015-05-26 01:15 METAR KOKV 260515Z AUTO 21004KT 10SM CLR 19/11 A3019 RMK AO2 =
2015-05-26 00:55 METAR KOKV 260455Z AUTO 00000KT 10SM CLR 20/11 A3018 RMK AO2 =
2015-05-26 00:35 METAR KOKV 260435Z AUTO 20004KT 10SM CLR 21/11 A3019 RMK AO2 =
2015-05-26 00:15 METAR KOKV 260415Z AUTO 19005KT 10SM CLR 22/10 A3019 RMK AO2 =
2015-05-25 23:55 METAR KOKV 260355Z AUTO 20006KT 10SM CLR 22/10 A3019 RMK AO2 =
2015-05-25 23:35 METAR KOKV 260335Z AUTO 20004KT 10SM CLR 21/10 A3019 RMK AO2 =
2015-05-25 23:15 METAR KOKV 260315Z AUTO 20004KT 10SM CLR 21/10 A3020 RMK AO2 =
2015-05-25 22:55 METAR KOKV 260255Z AUTO 20004KT 10SM CLR 22/10 A3020 RMK AO2 =
2015-05-25 22:35 METAR KOKV 260235Z AUTO 18005KT 10SM CLR 22/10 A3020 RMK AO2 =
2015-05-25 22:15 METAR KOKV 260215Z AUTO 18005KT 10SM CLR 23/10 A3020 RMK AO2 =
2015-05-25 21:55 METAR KOKV 260155Z AUTO 17005KT 10SM CLR 23/10 A3019 RMK AO2 =
2015-05-25 21:35 METAR KOKV 260135Z AUTO 17005KT 10SM CLR 23/10 A3019 RMK AO2 =
2015-05-25 21:15 METAR KOKV 260115Z AUTO 17006KT 10SM CLR 24/10 A3018 RMK AO2 =
2015-05-25 20:55 METAR KOKV 260055Z AUTO 17008KT 10SM CLR 24/11 A3017 RMK AO2 =
2015-05-25 20:35 METAR KOKV 260035Z AUTO 16006KT 10SM CLR 25/11 A3017 RMK AO2 =
2015-05-25 20:15 METAR KOKV 260015Z AUTO 16007KT 10SM CLR 25/11 A3017 RMK AO2 =
2015-05-25 19:55 METAR KOKV 252355Z AUTO 16006KT 10SM CLR 26/11 A3017 RMK AO2 =
2015-05-25 19:35 METAR KOKV 252335Z AUTO 16008KT 10SM CLR 27/11 A3017 RMK AO2 =
2015-05-25 19:15 METAR KOKV 252315Z AUTO 17011KT 140V200 10SM CLR 27/11 A3017 RMK AO2 =
2015-05-25 18:55 METAR KOKV 252255Z AUTO 16009KT 10SM CLR 28/11 A3017 RMK AO2 =
2015-05-25 18:35 METAR KOKV 252235Z AUTO 15012G16KT 10SM CLR 28/11 A3017 RMK AO2 =
2015-05-25 18:15 METAR KOKV 252215Z AUTO 16008KT 10SM CLR 28/11 A3017 RMK AO2 =
2015-05-25 17:55 METAR KOKV 252155Z AUTO 16011KT 10SM CLR 29/11 A3017 RMK AO2 =
2015-05-25 17:35 METAR KOKV 252135Z AUTO 18011G17KT 10SM CLR 29/11 A3017 RMK AO2 =
2015-05-25 17:15 METAR KOKV 252115Z AUTO 17011G16KT 10SM CLR 30/11 A3017 RMK AO2 =
2015-05-25 16:55 METAR KOKV 252055Z AUTO 15011KT 10SM CLR 30/11 A3017 RMK AO2 =
2015-05-25 16:35 METAR KOKV 252035Z AUTO 15011G15KT 10SM CLR 30/11 A3018 RMK AO2 =
2015-05-25 16:15 METAR KOKV 252015Z AUTO 14011KT 10SM CLR 30/11 A3018 RMK AO2 =
2015-05-25 15:55 METAR KOKV 251955Z AUTO 20009G15KT 10SM CLR 30/07 A3018 RMK AO2 =
2015-05-25 15:35 METAR KOKV 251935Z AUTO 20010KT 10SM CLR 30/07 A3018 RMK AO2 =
2015-05-25 15:15 METAR KOKV 251915Z AUTO 18012G15KT 10SM CLR 30/05 A3019 RMK AO2 =
2015-05-25 14:55 METAR KOKV 251855Z AUTO 21008G17KT 10SM CLR 30/06 A3019 RMK AO2 =
2015-05-25 14:35 METAR KOKV 251835Z AUTO 20011G19KT 10SM CLR 30/08 A3020 RMK AO2 =
2015-05-25 14:15 METAR KOKV 251815Z AUTO 20013G18KT 10SM CLR 30/07 A3020 RMK AO2 =
2015-05-25 13:55 METAR KOKV 251755Z AUTO 19011G19KT 10SM CLR 30/08 A3021 RMK AO2 =
2015-05-25 13:35 METAR KOKV 251735Z AUTO 19011G17KT 160V220 10SM CLR 29/09 A3021 RMK AO2 =
2015-05-25 13:15 METAR KOKV 251715Z AUTO 20012G17KT 150V220 10SM CLR 28/10 A3022 RMK AO2 =
2015-05-25 12:55 METAR KOKV 251655Z AUTO 16009G17KT 10SM CLR 28/10 A3022 RMK AO2 =
2015-05-25 12:35 METAR KOKV 251635Z AUTO 21010G17KT 10SM CLR 28/10 A3023 RMK AO2 =
2015-05-25 12:15 METAR KOKV 251615Z AUTO 18009KT 10SM CLR 28/10 A3023 RMK AO2 =
2015-05-25 11:55 METAR KOKV 251555Z AUTO 20009KT 10SM CLR 27/10 A3024 RMK AO2 =
2015-05-25 11:35 METAR KOKV 251535Z AUTO 18009KT 10SM CLR 27/10 A3025 RMK AO2 =
2015-05-25 11:15 METAR KOKV 251515Z AUTO 17010G14KT 10SM CLR 27/10 A3025 RMK AO2 =
2015-05-25 10:55 METAR KOKV 251455Z AUTO 24004KT 10SM CLR 26/11 A3025 RMK AO2 =
2015-05-25 10:35 METAR KOKV 251435Z AUTO 24006KT 10SM CLR 26/11 A3026 RMK AO2 =
2015-05-25 10:15 METAR KOKV 251415Z AUTO 19007KT 10SM CLR 25/11 A3026 RMK AO2 =
2015-05-25 09:55 METAR KOKV 251355Z AUTO 21006KT 10SM CLR 25/11 A3025 RMK AO2 =
2015-05-25 09:35 METAR KOKV 251335Z AUTO 21006KT 10SM CLR 24/11 A3025 RMK AO2 =
2015-05-25 09:15 METAR KOKV 251315Z AUTO 19008KT 10SM CLR 23/11 A3026 RMK AO2 =
2015-05-25 08:55 METAR KOKV 251255Z AUTO 19006KT 10SM CLR 22/11 A3026 RMK AO2 =
2015-05-25 08:35 METAR KOKV 251235Z AUTO 18007KT 10SM CLR 22/10 A3025 RMK AO2 =
2015-05-25 08:15 METAR KOKV 251215Z AUTO 20004KT 10SM CLR 21/11 A3025 RMK AO2 =
2015-05-25 07:35 METAR KOKV 251135Z AUTO 21005KT 10SM CLR 20/10 A3025 RMK AO2 =
2015-05-25 07:15 METAR KOKV 251115Z AUTO 24005KT 10SM CLR 18/10 A3025 RMK AO2 =
2015-05-25 06:55 METAR KOKV 251055Z AUTO 00000KT 10SM CLR 17/10 A3025 RMK AO2 =
2015-05-25 06:35 METAR KOKV 251035Z AUTO 24003KT 10SM CLR 17/10 A3024 RMK AO2 =
2015-05-25 06:15 METAR KOKV 251015Z AUTO 00000KT 10SM CLR 17/10 A3024 RMK AO2 =
2015-05-25 05:55 METAR KOKV 250955Z AUTO 22003KT 10SM CLR 17/10 A3023 RMK AO2 =
2015-05-25 05:35 METAR KOKV 250935Z AUTO 23005KT 10SM CLR 17/10 A3022 RMK AO2 =
2015-05-25 05:15 METAR KOKV 250915Z AUTO 22005KT 10SM CLR 17/10 A3022 RMK AO2 =
2015-05-25 04:55 METAR KOKV 250855Z AUTO 20004KT 10SM CLR 17/10 A3022 RMK AO2 =
2015-05-25 04:35 METAR KOKV 250835Z AUTO 19003KT 10SM CLR 16/10 A3023 RMK AO2 =
2015-05-25 04:15 METAR KOKV 250815Z AUTO 17003KT 10SM CLR 17/10 A3023 RMK AO2 =
2015-05-25 03:55 METAR KOKV 250755Z AUTO 23003KT 10SM CLR 17/10 A3023 RMK AO2 =
2015-05-25 03:35 METAR KOKV 250735Z AUTO 22004KT 10SM CLR 17/10 A3024 RMK AO2 =
2015-05-25 03:15 METAR KOKV 250715Z AUTO 20003KT 10SM CLR 17/10 A3024 RMK AO2 =
2015-05-25 02:55 METAR KOKV 250655Z AUTO 00000KT 10SM CLR 18/09 A3024 RMK AO2 =
2015-05-25 02:35 METAR KOKV 250635Z AUTO 23003KT 10SM CLR 18/09 A3024 RMK AO2 =
2015-05-25 02:15 METAR KOKV 250615Z AUTO 24003KT 10SM CLR 18/10 A3023 RMK AO2 =
2015-05-25 01:55 METAR KOKV 250555Z AUTO 23003KT 10SM CLR 19/09 A3024 RMK AO2 =
2015-05-25 01:35 METAR KOKV 250535Z AUTO 22004KT 10SM CLR 18/10 A3024 RMK AO2 =

Support USWX by starting your Amazon purchase here.